Sacramento, CA (95815)

9:37 AM PDT on August 30, 2015 (GMT -0700)
Natomas - BDWx | | Change Station
CLOSE
Current Station
Personal Weather Station
Location: Sacramento, CA
Elevation: 13 ft
Nearby Weather Stations

Elev 13 ft 38.63 °N, 121.49 °W | Updated 20 seconds ago

Clear
Clear
72.0 °F
Feels Like 76 °F
N
2.8
Wind Variable Wind from SE
Gusts 6.0 mph

Today
High -- | Low -- °F
--% Chance of Precip.
Yesterday
High -- | Low -- °F
Precip. -- in
6:33 AM 7:39 PM
Full, 99% visible
Pressure 30.03 in
Visibility 9.0 miles
Clouds Clear
Heat Index 76 °F
Dew Point 59 °F
Humidity 63%
Rainfall 0.00 in
Snow Depth Not available.
UV 3 out of 12
Pollen 7.90 out of 12
Air Quality Not available.
Flu Activity Not available.
METAR KMCC 301615Z AUTO 13006KT 9SM CLR 19/13 A3003 RMK AO2
Pressure 30.03 in
Visibility 9.0 miles
Clouds Clear
Heat Index 76 °F
Dew Point 59 °F
Humidity 63%
Rainfall 0.00 in
Snow Depth Not available.
UV 3 out of 12
Pollen 7.90 out of 12
Air Quality Not available.
Flu Activity Not available.
METAR KMCC 301615Z AUTO 13006KT 9SM CLR 19/13 A3003 RMK AO2

10-Day Weather Forecast

×

Almanac

Astronomy

Aug. 30, 2015 Rise Set
Actual Time
Civil Twilight
Nautical Twilight
Astronomical Twilight
Moon
Length of Visible Light
Length of Day
Tomorrow will be .
, % of the Moon is Illuminated

Today's Extremes

State Highs State Lows

Community

WunderPhotos

Upload Photos

1,851,008 photos uploaded!

WunderBlogs® & News

Nearby

Air Quality

  Air Quality AQ Index Pollutant
Not available.

Snow Depth

Station Depth Elevation

Earthquake Activity

City Distance Mag. Time & Date
Minimum magnitude displayed is 2.5.

Coastal Water Temperatures

Place Temperature

Stations

Nearby Weather Stations

Station Location Temp. Windchill Dew Point Humidity Wind Precip. Elev Updated Type